Time;durP1;ratioP1;P1;durP2;ratioP2;P2;SDS_P1;SDS_P2;PMS_P1;PMS_P2;Temp;Humidity;BMP_temperature;BMP_pressure;BME280_temperature;BME280_humidity;BME280_pressure;Samples;Min_cycle;Max_cycle;Signal;HPM_P1;HPM_P2
2022/08/20 00:04:06;;;;;;;8.13;5.68;;;;;;;;;;10420487;28;20021;-78
2022/08/20 00:09:07;;;;;;;10.77;5.10;;;;;;;;;;10428075;28;20029;-74
2022/08/20 00:14:07;;;;;;;10.05;4.85;;;;;;;;;;10410540;28;20308;-77
2022/08/20 00:19:08;;;;;;;8.50;5.73;;;;;;;;;;10408941;28;20022;-81
2022/08/20 00:24:08;;;;;;;12.32;6.80;;;;;;;;;;10407549;28;20050;-74
2022/08/20 00:29:08;;;;;;;6.43;4.97;;;;;;;;;;10409817;28;20083;-79
2022/08/20 00:34:08;;;;;;;11.73;5.95;;;;;;;;;;10408616;28;20025;-78
2022/08/20 00:39:09;;;;;;;6.88;5.75;;;;;;;;;;10427088;28;20057;-77
2022/08/20 00:44:14;;;;;;;9.60;6.40;;;;;;;;;;10409644;28;20032;-77
2022/08/20 00:49:21;;;;;;;8.68;5.93;;;;;;;;;;10408921;28;20028;-74
2022/08/20 00:54:24;;;;;;;12.18;6.10;;;;;;;;;;10407456;28;20095;-76
2022/08/20 00:59:26;;;;;;;11.55;7.68;;;;;;;;;;10424616;28;20014;-76
2022/08/20 01:04:32;;;;;;;14.23;6.45;;;;;;;;;;10408366;28;20025;-77
2022/08/20 01:09:34;;;;;;;13.07;5.95;;;;;;;;;;10424050;28;20029;-74
2022/08/20 01:19:38;;;;;;;10.80;6.17;;;;;;;;;;10406904;28;20017;-77
2022/08/20 01:24:40;;;;;;;10.40;6.03;;;;;;;;;;10423857;28;20402;-76
2022/08/20 01:29:41;;;;;;;8.63;6.22;;;;;;;;;;10406763;28;20025;-71
2022/08/20 01:34:42;;;;;;;8.10;6.20;;;;;;;;;;10389200;28;20418;-77
2022/08/20 01:39:42;;;;;;;13.45;6.47;;;;;;;;;;10407065;28;20679;-76
2022/08/20 01:44:43;;;;;;;12.65;6.45;;;;;;;;;;10406421;28;20348;-73
2022/08/20 01:49:45;;;;;;;14.43;6.57;;;;;;;;;;10405898;28;20095;-76
2022/08/20 01:54:46;;;;;;;9.23;6.20;;;;;;;;;;10405827;28;20060;-73
2022/08/20 01:59:48;;;;;;;14.95;6.57;;;;;;;;;;10423394;28;20140;-77
2022/08/20 02:04:49;;;;;;;10.25;7.07;;;;;;;;;;10406663;28;20035;-80
2022/08/20 02:09:49;;;;;;;13.57;7.00;;;;;;;;;;10405933;28;20025;-75
2022/08/20 02:14:51;;;;;;;16.98;7.88;;;;;;;;;;10412627;28;20033;-71
2022/08/20 02:19:57;;;;;;;9.25;6.22;;;;;;;;;;10413149;28;20033;-77
2022/08/20 02:24:58;;;;;;;10.88;6.50;;;;;;;;;;10404687;28;20057;-74
2022/08/20 02:29:58;;;;;;;9.95;6.05;;;;;;;;;;10404822;28;20025;-74
2022/08/20 02:34:58;;;;;;;17.65;6.80;;;;;;;;;;10388455;28;20429;-79
2022/08/20 02:39:58;;;;;;;11.63;6.63;;;;;;;;;;10405857;28;20495;-77
2022/08/20 02:44:59;;;;;;;13.32;6.53;;;;;;;;;;10405060;28;20024;-76
2022/08/20 02:49:59;;;;;;;9.02;6.30;;;;;;;;;;10404496;28;20021;-73
2022/08/20 02:54:59;;;;;;;10.60;7.40;;;;;;;;;;10405066;28;20180;-79
2022/08/20 03:00:00;;;;;;;12.95;6.30;;;;;;;;;;10403667;28;20445;-73
2022/08/20 03:05:01;;;;;;;9.27;6.20;;;;;;;;;;10405904;28;20025;-81
2022/08/20 03:10:01;;;;;;;14.37;6.37;;;;;;;;;;10404885;28;20048;-79
2022/08/20 03:15:01;;;;;;;9.52;6.50;;;;;;;;;;10406255;28;20013;-72
2022/08/20 03:20:06;;;;;;;13.13;7.70;;;;;;;;;;10411119;28;20028;-74
2022/08/20 03:25:07;;;;;;;12.10;7.47;;;;;;;;;;10434984;22;20049;-73
2022/08/20 03:30:09;;;;;;;9.02;7.00;;;;;;;;;;10421167;28;20410;-71
2022/08/20 03:35:11;;;;;;;15.63;7.63;;;;;;;;;;10420845;28;20075;-76
2022/08/20 03:40:15;;;;;;;13.02;7.50;;;;;;;;;;10421842;28;20033;-75
2022/08/20 03:45:15;;;;;;;10.27;6.88;;;;;;;;;;10409184;28;20021;-77
2022/08/20 03:50:17;;;;;;;13.23;7.20;;;;;;;;;;10407885;28;20101;-73
2022/08/20 03:55:18;;;;;;;13.88;7.63;;;;;;;;;;10392272;28;20028;-73
2022/08/20 04:00:20;;;;;;;13.70;8.20;;;;;;;;;;10409028;28;20121;-77
2022/08/20 04:05:20;;;;;;;11.63;8.10;;;;;;;;;;10427830;28;20033;-72
2022/08/20 04:10:21;;;;;;;11.55;7.43;;;;;;;;;;10398412;28;20020;-77
2022/08/20 04:15:22;;;;;;;16.45;8.55;;;;;;;;;;10409739;28;20017;-73
2022/08/20 04:20:24;;;;;;;12.20;7.35;;;;;;;;;;10387100;28;20087;-77
2022/08/20 04:25:26;;;;;;;13.50;8.43;;;;;;;;;;10410318;28;20049;-75
2022/08/20 04:30:27;;;;;;;10.65;6.93;;;;;;;;;;10411880;28;20427;-76
2022/08/20 04:35:27;;;;;;;12.18;7.53;;;;;;;;;;10422184;28;20032;-72
2022/08/20 04:45:47;;;;;;;16.63;8.35;;;;;;;;;;10412913;28;20029;-73
2022/08/20 04:50:47;;;;;;;12.40;7.40;;;;;;;;;;10410067;28;20017;-76
2022/08/20 04:55:47;;;;;;;16.08;8.05;;;;;;;;;;10411152;28;20017;-80
2022/08/20 05:00:50;;;;;;;16.48;7.40;;;;;;;;;;10416036;28;20437;-77
2022/08/20 05:05:50;;;;;;;15.82;7.53;;;;;;;;;;10417678;28;20017;-77
2022/08/20 05:10:51;;;;;;;9.50;6.93;;;;;;;;;;10401696;28;20017;-73
2022/08/20 05:15:52;;;;;;;11.73;7.30;;;;;;;;;;10394064;28;20018;-78
2022/08/20 05:20:52;;;;;;;14.77;7.83;;;;;;;;;;10417465;28;20033;-75
2022/08/20 05:25:53;;;;;;;10.77;6.43;;;;;;;;;;10412755;28;20307;-76
2022/08/20 05:30:53;;;;;;;8.35;6.43;;;;;;;;;;10411673;28;20029;-74
2022/08/20 05:35:54;;;;;;;11.50;7.50;;;;;;;;;;10399620;28;20408;-81
2022/08/20 05:40:55;;;;;;;16.83;7.53;;;;;;;;;;10397914;28;20029;-78
2022/08/20 05:45:57;;;;;;;9.98;7.90;;;;;;;;;;10403231;28;20021;-78
2022/08/20 05:50:57;;;;;;;14.20;7.30;;;;;;;;;;10404306;28;20013;-79
2022/08/20 05:55:58;;;;;;;23.42;7.10;;;;;;;;;;10412991;28;20455;-80
2022/08/20 06:00:58;;;;;;;13.60;6.32;;;;;;;;;;10404912;28;20029;-74
2022/08/20 06:05:58;;;;;;;8.40;6.43;;;;;;;;;;10405983;28;20026;-73
2022/08/20 06:10:59;;;;;;;10.77;6.50;;;;;;;;;;10410055;28;20028;-74
2022/08/20 06:15:59;;;;;;;10.80;6.10;;;;;;;;;;10405053;28;20021;-77
2022/08/20 06:20:59;;;;;;;11.77;6.07;;;;;;;;;;10410519;28;20028;-79
2022/08/20 06:26:00;;;;;;;10.10;5.78;;;;;;;;;;10404174;28;20053;-80
2022/08/20 06:31:00;;;;;;;12.55;6.35;;;;;;;;;;10422075;28;20156;-79
2022/08/20 06:36:01;;;;;;;13.00;6.63;;;;;;;;;;10401681;28;20454;-80
2022/08/20 06:41:01;;;;;;;11.88;4.95;;;;;;;;;;10400253;28;20072;-74
2022/08/20 06:46:02;;;;;;;13.40;5.70;;;;;;;;;;10399615;28;20025;-82
2022/08/20 06:51:03;;;;;;;10.90;5.30;;;;;;;;;;10414610;28;20020;-73
2022/08/20 06:56:03;;;;;;;24.02;5.63;;;;;;;;;;10407695;28;20048;-75
2022/08/20 07:01:04;;;;;;;8.13;5.00;;;;;;;;;;10400785;28;20032;-77
2022/08/20 07:06:05;;;;;;;10.45;5.05;;;;;;;;;;10408129;28;20028;-76
2022/08/20 07:11:05;;;;;;;12.15;4.90;;;;;;;;;;10404399;28;20042;-71
2022/08/20 07:16:05;;;;;;;10.48;5.25;;;;;;;;;;10409918;28;20119;-77
2022/08/20 07:21:06;;;;;;;16.20;5.40;;;;;;;;;;10399642;28;20028;-76
2022/08/20 07:26:07;;;;;;;13.05;4.80;;;;;;;;;;10418974;28;20435;-75
2022/08/20 07:36:27;;;;;;;9.30;5.30;;;;;;;;;;10401881;28;20194;-78
2022/08/20 07:41:27;;;;;;;9.77;5.43;;;;;;;;;;10404618;28;20032;-72
2022/08/20 07:46:28;;;;;;;10.77;5.20;;;;;;;;;;10382485;28;20117;-77
2022/08/20 07:51:28;;;;;;;5.60;4.43;;;;;;;;;;10403165;28;20472;-78
2022/08/20 07:56:28;;;;;;;8.57;4.43;;;;;;;;;;10421283;28;20020;-77
2022/08/20 08:01:30;;;;;;;9.57;4.50;;;;;;;;;;10402688;28;20029;-77
2022/08/20 08:06:30;;;;;;;7.35;4.80;;;;;;;;;;10417790;28;20419;-78
2022/08/20 08:11:32;;;;;;;7.47;5.10;;;;;;;;;;10395399;28;20024;-76
2022/08/20 08:16:33;;;;;;;8.05;4.78;;;;;;;;;;10421055;28;20337;-77
2022/08/20 08:21:33;;;;;;;6.80;4.88;;;;;;;;;;10408167;28;20550;-72
2022/08/20 08:26:33;;;;;;;7.57;5.33;;;;;;;;;;10400323;28;20451;-73
2022/08/20 08:31:34;;;;;;;6.93;4.50;;;;;;;;;;10422455;28;20467;-76
2022/08/20 08:36:34;;;;;;;8.73;4.47;;;;;;;;;;10403206;28;20479;-74
2022/08/20 08:41:36;;;;;;;8.00;4.40;;;;;;;;;;10401997;28;20025;-76
2022/08/20 08:46:43;;;;;;;6.53;4.25;;;;;;;;;;10397352;28;20169;-75
2022/08/20 08:51:47;;;;;;;7.97;4.35;;;;;;;;;;10416442;28;20029;-77
2022/08/20 08:56:47;;;;;;;7.43;3.92;;;;;;;;;;10419141;28;20483;-72
2022/08/20 09:01:51;;;;;;;6.40;4.88;;;;;;;;;;10401754;28;20017;-75
2022/08/20 09:06:52;;;;;;;7.38;4.47;;;;;;;;;;10415420;28;20028;-76
2022/08/20 09:11:53;;;;;;;7.20;4.07;;;;;;;;;;10399025;28;20090;-77
2022/08/20 09:16:54;;;;;;;11.02;4.32;;;;;;;;;;10399116;28;20131;-77
2022/08/20 09:21:54;;;;;;;7.97;3.95;;;;;;;;;;10401603;28;20036;-77
2022/08/20 09:26:54;;;;;;;8.73;4.10;;;;;;;;;;10401726;28;20049;-76
2022/08/20 09:32:11;;;;;;;6.35;4.07;;;;;;;;;;10402293;28;20024;-77
2022/08/20 09:37:12;;;;;;;6.60;4.40;;;;;;;;;;10417588;28;20476;-80
2022/08/20 09:42:14;;;;;;;5.45;4.25;;;;;;;;;;10420553;28;20035;-76
2022/08/20 09:47:16;;;;;;;7.35;4.15;;;;;;;;;;10418754;28;20021;-78
2022/08/20 09:52:28;;;;;;;5.88;3.78;;;;;;;;;;10401783;28;20482;-75
2022/08/20 09:57:28;;;;;;;9.13;3.85;;;;;;;;;;10400637;28;20104;-76
2022/08/20 10:02:29;;;;;;;5.85;3.38;;;;;;;;;;10394084;28;20031;-77
2022/08/20 10:07:29;;;;;;;4.78;3.60;;;;;;;;;;10401249;28;20025;-78
2022/08/20 10:12:30;;;;;;;6.07;3.90;;;;;;;;;;10410459;28;20017;-77
2022/08/20 10:17:30;;;;;;;4.15;3.42;;;;;;;;;;10372197;28;20465;-77
2022/08/20 10:22:31;;;;;;;4.95;3.42;;;;;;;;;;10389794;28;20499;-77
2022/08/20 10:27:32;;;;;;;4.65;3.28;;;;;;;;;;10431288;22;20060;-76
2022/08/20 10:32:32;;;;;;;4.85;3.45;;;;;;;;;;10406070;28;20036;-77
2022/08/20 10:37:33;;;;;;;4.75;3.15;;;;;;;;;;10395575;28;20056;-77
2022/08/20 10:42:33;;;;;;;6.35;3.40;;;;;;;;;;10415699;28;20037;-75
2022/08/20 10:47:34;;;;;;;12.07;4.40;;;;;;;;;;10393246;28;20025;-71
2022/08/20 10:52:34;;;;;;;5.03;3.58;;;;;;;;;;10397114;28;20029;-74
2022/08/20 10:57:36;;;;;;;8.35;3.70;;;;;;;;;;10398850;28;20116;-75
2022/08/20 11:02:36;;;;;;;10.27;3.70;;;;;;;;;;10388893;28;20037;-76
2022/08/20 11:07:38;;;;;;;5.83;3.77;;;;;;;;;;10413456;28;20409;-74
2022/08/20 11:12:38;;;;;;;4.95;3.47;;;;;;;;;;10397382;28;20029;-76
2022/08/20 11:17:40;;;;;;;6.43;4.18;;;;;;;;;;10411715;28;20091;-73
2022/08/20 11:22:40;;;;;;;8.30;4.22;;;;;;;;;;10415776;28;20033;-76
2022/08/20 11:27:43;;;;;;;7.55;4.32;;;;;;;;;;10412705;28;20473;-72
2022/08/20 11:32:43;;;;;;;13.80;5.30;;;;;;;;;;10398343;28;20021;-70
2022/08/20 11:37:43;;;;;;;8.13;4.97;;;;;;;;;;10423586;28;20029;-78
2022/08/20 11:42:43;;;;;;;8.98;4.68;;;;;;;;;;10400277;28;20425;-77
2022/08/20 11:47:44;;;;;;;10.20;5.50;;;;;;;;;;10405209;28;20028;-76
2022/08/20 11:52:44;;;;;;;8.82;5.13;;;;;;;;;;10402654;28;20089;-77
2022/08/20 11:57:45;;;;;;;9.70;4.90;;;;;;;;;;10399740;28;20029;-76
2022/08/20 12:02:46;;;;;;;7.00;4.90;;;;;;;;;;10398890;28;20025;-77
2022/08/20 12:07:46;;;;;;;6.72;4.05;;;;;;;;;;10397270;28;20021;-72
2022/08/20 12:12:47;;;;;;;8.38;4.30;;;;;;;;;;10405294;28;20017;-75
2022/08/20 12:17:47;;;;;;;7.43;6.18;;;;;;;;;;10402515;28;20480;-78
2022/08/20 12:22:47;;;;;;;6.27;4.63;;;;;;;;;;10403759;28;20051;-77
2022/08/20 12:27:47;;;;;;;5.93;4.72;;;;;;;;;;10402144;28;20037;-75
2022/08/20 12:32:48;;;;;;;7.75;5.32;;;;;;;;;;10401717;28;20021;-76
2022/08/20 12:37:49;;;;;;;12.77;7.30;;;;;;;;;;10402610;28;20175;-77
2022/08/20 12:42:49;;;;;;;17.77;10.70;;;;;;;;;;10404074;28;20109;-75
2022/08/20 12:47:49;;;;;;;22.73;10.40;;;;;;;;;;10400776;28;20611;-81
2022/08/20 12:52:50;;;;;;;22.88;13.18;;;;;;;;;;10400757;28;20022;-79
2022/08/20 13:02:57;;;;;;;31.60;15.65;;;;;;;;;;10401526;28;20847;-77
2022/08/20 13:07:57;;;;;;;24.50;14.45;;;;;;;;;;10407621;28;20577;-75
2022/08/20 13:13:00;;;;;;;28.15;15.02;;;;;;;;;;10393689;28;20056;-75
2022/08/20 13:18:01;;;;;;;29.15;15.05;;;;;;;;;;10400086;28;20026;-77
2022/08/20 13:23:03;;;;;;;26.23;17.63;;;;;;;;;;10406025;28;20029;-77
2022/08/20 13:28:03;;;;;;;38.33;19.30;;;;;;;;;;10405453;28;20021;-77
2022/08/20 13:33:03;;;;;;;37.27;19.37;;;;;;;;;;10388480;28;20106;-78
2022/08/20 13:38:04;;;;;;;35.13;23.63;;;;;;;;;;10394480;28;20363;-77
2022/08/20 13:43:04;;;;;;;34.05;15.73;;;;;;;;;;10369492;28;20107;-76
2022/08/20 13:48:04;;;;;;;33.10;14.65;;;;;;;;;;10355897;28;20510;-77
2022/08/20 13:53:05;;;;;;;21.45;12.90;;;;;;;;;;10368324;28;20407;-76
2022/08/20 13:58:06;;;;;;;17.23;13.10;;;;;;;;;;10352809;28;20094;-77
2022/08/20 14:03:06;;;;;;;21.08;13.45;;;;;;;;;;10369040;28;20037;-77
2022/08/20 14:08:16;;;;;;;24.15;15.27;;;;;;;;;;10360569;28;20558;-79
2022/08/20 14:13:17;;;;;;;26.58;15.43;;;;;;;;;;10358608;28;20030;-75
2022/08/20 14:18:18;;;;;;;25.63;14.25;;;;;;;;;;10369563;28;20484;-76
2022/08/20 14:23:18;;;;;;;20.58;14.63;;;;;;;;;;10359169;28;20026;-76
2022/08/20 14:28:21;;;;;;;23.80;15.80;;;;;;;;;;10355150;28;20025;-75
2022/08/20 14:33:22;;;;;;;23.23;15.70;;;;;;;;;;10382084;28;20109;-76
2022/08/20 14:38:22;;;;;;;25.65;16.70;;;;;;;;;;10383684;28;20746;-75
2022/08/20 14:43:23;;;;;;;25.13;16.77;;;;;;;;;;10360327;28;20033;-76
2022/08/20 14:48:24;;;;;;;26.67;15.73;;;;;;;;;;10356210;28;20516;-79
2022/08/20 14:53:24;;;;;;;34.30;18.63;;;;;;;;;;10369176;28;20149;-77
2022/08/20 14:58:25;;;;;;;29.03;18.13;;;;;;;;;;10359092;28;20050;-73
2022/08/20 15:03:29;;;;;;;21.63;15.37;;;;;;;;;;10340673;28;20022;-77
2022/08/20 15:08:30;;;;;;;31.92;18.48;;;;;;;;;;10359524;28;20418;-78
2022/08/20 15:13:30;;;;;;;25.02;16.65;;;;;;;;;;10367941;28;20087;-78
2022/08/20 15:18:31;;;;;;;19.98;14.63;;;;;;;;;;10387313;28;20541;-74
2022/08/20 15:23:31;;;;;;;26.10;16.00;;;;;;;;;;10375947;28;20026;-77
2022/08/20 15:28:31;;;;;;;28.95;16.20;;;;;;;;;;10384257;28;20424;-76
2022/08/20 15:33:31;;;;;;;27.13;17.83;;;;;;;;;;10364070;28;20079;-77
2022/08/20 15:38:32;;;;;;;33.08;20.55;;;;;;;;;;10365186;28;20479;-77
2022/08/20 15:43:32;;;;;;;27.75;19.13;;;;;;;;;;10366047;28;20067;-76
2022/08/20 15:48:51;;;;;;;31.98;19.40;;;;;;;;;;10362062;28;20025;-76
2022/08/20 15:54:03;;;;;;;29.20;18.88;;;;;;;;;;10388196;28;20041;-76
2022/08/20 15:59:32;;;;;;;29.63;17.40;;;;;;;;;;10371851;28;20166;-77
2022/08/20 16:04:35;;;;;;;27.98;19.15;;;;;;;;;;10334249;28;20034;-79
2022/08/20 16:09:36;;;;;;;23.23;15.75;;;;;;;;;;10358192;28;20036;-76
2022/08/20 16:14:38;;;;;;;33.50;16.42;;;;;;;;;;10362739;28;20662;-76
2022/08/20 16:20:04;;;;;;;18.38;13.07;;;;;;;;;;10364304;28;20022;-75
2022/08/20 16:25:04;;;;;;;19.38;13.48;;;;;;;;;;10372932;28;20057;-71
2022/08/20 16:30:04;;;;;;;20.50;14.60;;;;;;;;;;10358490;28;20104;-76
2022/08/20 16:35:09;;;;;;;23.33;13.93;;;;;;;;;;10374032;28;20280;-76
2022/08/20 16:40:21;;;;;;;15.52;10.20;;;;;;;;;;10372607;28;20277;-71
2022/08/20 16:45:26;;;;;;;15.55;11.13;;;;;;;;;;10362118;28;20506;-75
2022/08/20 16:50:45;;;;;;;26.25;14.68;;;;;;;;;;10360487;28;20018;-76
2022/08/20 16:55:46;;;;;;;18.10;11.48;;;;;;;;;;10375188;28;20049;-75
2022/08/20 17:00:46;;;;;;;15.30;11.07;;;;;;;;;;10371734;28;20157;-72
2022/08/20 17:05:48;;;;;;;22.70;13.45;;;;;;;;;;10357394;28;20498;-76
2022/08/20 17:10:54;;;;;;;22.73;12.80;;;;;;;;;;10359187;28;20401;-71
2022/08/20 17:15:56;;;;;;;24.67;14.18;;;;;;;;;;10355416;28;20029;-72
2022/08/20 17:21:04;;;;;;;18.55;12.48;;;;;;;;;;10360570;28;20562;-81
2022/08/20 17:26:15;;;;;;;19.33;13.85;;;;;;;;;;10338619;28;20459;-71
2022/08/20 17:31:29;;;;;;;20.80;12.70;;;;;;;;;;10356831;28;20426;-76
2022/08/20 17:36:30;;;;;;;20.67;12.50;;;;;;;;;;10386708;28;20475;-72
2022/08/20 17:41:32;;;;;;;25.77;16.15;;;;;;;;;;10359994;28;20022;-77
2022/08/20 17:46:34;;;;;;;30.95;14.98;;;;;;;;;;10361482;28;20096;-73
2022/08/20 17:51:41;;;;;;;21.05;11.82;;;;;;;;;;10358342;28;20466;-74
2022/08/20 17:56:42;;;;;;;20.27;8.80;;;;;;;;;;10357757;28;20029;-76
2022/08/20 18:01:43;;;;;;;15.18;8.00;;;;;;;;;;10344178;28;20050;-74
2022/08/20 18:06:57;;;;;;;12.77;8.45;;;;;;;;;;10351406;28;20614;-77
2022/08/20 18:12:18;;;;;;;24.98;10.18;;;;;;;;;;10360774;28;20026;-71
2022/08/20 18:17:33;;;;;;;11.77;5.80;;;;;;;;;;10344492;28;20096;-75
2022/08/20 18:22:34;;;;;;;9.68;4.32;;;;;;;;;;10378492;28;20026;-76
2022/08/20 18:27:38;;;;;;;7.35;4.70;;;;;;;;;;10373754;28;20092;-77
2022/08/20 18:32:39;;;;;;;6.50;3.45;;;;;;;;;;10369299;28;20635;-75
2022/08/20 18:37:39;;;;;;;14.98;6.65;;;;;;;;;;10359033;28;20030;-71
2022/08/20 18:42:40;;;;;;;6.25;2.72;;;;;;;;;;10353465;28;20034;-75
2022/08/20 18:47:42;;;;;;;5.30;2.63;;;;;;;;;;10364880;28;20025;-72
2022/08/20 18:52:42;;;;;;;4.57;1.70;;;;;;;;;;10350279;28;20034;-76
2022/08/20 18:58:12;;;;;;;5.10;1.85;;;;;;;;;;10365471;28;20137;-76
2022/08/20 19:03:27;;;;;;;10.40;5.00;;;;;;;;;;10348208;28;20050;-72
2022/08/20 19:08:38;;;;;;;20.95;11.63;;;;;;;;;;10366532;28;20149;-76
2022/08/20 19:13:45;;;;;;;13.40;8.23;;;;;;;;;;10373173;28;20021;-76
2022/08/20 19:18:49;;;;;;;22.67;11.93;;;;;;;;;;10385290;28;20451;-77
2022/08/20 19:23:52;;;;;;;14.82;8.15;;;;;;;;;;10374243;28;20038;-76
2022/08/20 19:28:55;;;;;;;12.18;4.55;;;;;;;;;;10363158;28;20018;-71
2022/08/20 19:34:07;;;;;;;9.40;3.95;;;;;;;;;;10360150;28;20036;-75
2022/08/20 19:39:14;;;;;;;9.25;4.70;;;;;;;;;;10391308;28;20087;-75
2022/08/20 19:44:25;;;;;;;18.77;6.60;;;;;;;;;;10373859;28;20105;-75
2022/08/20 19:49:28;;;;;;;17.17;4.47;;;;;;;;;;10361824;28;20056;-71
2022/08/20 19:54:29;;;;;;;11.98;4.80;;;;;;;;;;10390906;28;20030;-75
2022/08/20 19:59:29;;;;;;;17.92;4.72;;;;;;;;;;10364332;28;20093;-71
2022/08/20 20:04:39;;;;;;;9.53;4.70;;;;;;;;;;10376149;28;20022;-79
2022/08/20 20:09:41;;;;;;;16.85;4.82;;;;;;;;;;10374300;28;20502;-80
2022/08/20 20:14:42;;;;;;;12.63;3.70;;;;;;;;;;10362313;28;20554;-75
2022/08/20 20:19:45;;;;;;;8.27;3.45;;;;;;;;;;10363770;28;20036;-73
2022/08/20 20:24:57;;;;;;;8.38;3.85;;;;;;;;;;10369438;28;20030;-73
2022/08/20 20:30:02;;;;;;;14.15;3.83;;;;;;;;;;10377241;28;20025;-78
2022/08/20 20:35:03;;;;;;;16.30;5.25;;;;;;;;;;10362016;28;20044;-72
2022/08/20 20:40:13;;;;;;;8.52;4.50;;;;;;;;;;10385793;28;20508;-73
2022/08/20 20:45:15;;;;;;;15.75;5.40;;;;;;;;;;10373107;28;20025;-78
2022/08/20 20:50:25;;;;;;;16.38;5.88;;;;;;;;;;10357508;28;20896;-76
2022/08/20 20:55:27;;;;;;;11.10;5.28;;;;;;;;;;10383399;28;20480;-77
2022/08/20 21:00:28;;;;;;;9.90;5.60;;;;;;;;;;10374615;28;20053;-77
2022/08/20 21:05:28;;;;;;;17.95;5.78;;;;;;;;;;10346092;28;20034;-76
2022/08/20 21:10:31;;;;;;;9.45;4.60;;;;;;;;;;10353260;28;20025;-77
2022/08/20 21:15:31;;;;;;;11.88;5.75;;;;;;;;;;10368641;28;20026;-75
2022/08/20 21:20:32;;;;;;;12.55;6.32;;;;;;;;;;10354765;28;20074;-72
2022/08/20 21:25:33;;;;;;;15.77;5.80;;;;;;;;;;10362946;28;20037;-78
2022/08/20 21:30:33;;;;;;;11.80;5.22;;;;;;;;;;10367393;28;20125;-73
2022/08/20 21:35:34;;;;;;;16.60;4.88;;;;;;;;;;10357865;28;20483;-78
2022/08/20 21:40:34;;;;;;;13.60;5.72;;;;;;;;;;10352448;28;20032;-78
2022/08/20 21:45:35;;;;;;;12.27;5.22;;;;;;;;;;10365618;28;20057;-78
2022/08/20 21:50:36;;;;;;;10.60;5.20;;;;;;;;;;10362612;28;20022;-79
2022/08/20 21:55:36;;;;;;;17.10;5.45;;;;;;;;;;10359018;28;20493;-77
2022/08/20 22:00:47;;;;;;;11.32;5.60;;;;;;;;;;10356386;28;20142;-78
2022/08/20 22:05:47;;;;;;;13.45;6.28;;;;;;;;;;10358895;28;20021;-78
2022/08/20 22:10:49;;;;;;;17.02;6.78;;;;;;;;;;10360300;28;20084;-77
2022/08/20 22:15:49;;;;;;;12.45;6.07;;;;;;;;;;10356935;28;20025;-77
2022/08/20 22:20:49;;;;;;;13.63;7.30;;;;;;;;;;10368902;28;20457;-73
2022/08/20 22:25:50;;;;;;;19.70;8.25;;;;;;;;;;10358424;28;20450;-73
2022/08/20 22:30:50;;;;;;;20.55;7.35;;;;;;;;;;10360439;28;20120;-78
2022/08/20 22:35:52;;;;;;;14.27;7.05;;;;;;;;;;10353777;28;20103;-74
2022/08/20 22:40:52;;;;;;;17.48;7.60;;;;;;;;;;10348418;28;20018;-79
2022/08/20 22:45:55;;;;;;;15.53;6.80;;;;;;;;;;10360765;28;20048;-78
2022/08/20 22:50:56;;;;;;;16.00;6.88;;;;;;;;;;10360245;28;20288;-79
2022/08/20 22:55:56;;;;;;;15.52;6.70;;;;;;;;;;10376470;28;20087;-78
2022/08/20 23:00:58;;;;;;;18.90;6.60;;;;;;;;;;10375640;28;20050;-78
2022/08/20 23:05:58;;;;;;;14.45;6.63;;;;;;;;;;10363763;28;20033;-77
2022/08/20 23:10:58;;;;;;;16.00;6.18;;;;;;;;;;10376735;28;20026;-77
2022/08/20 23:15:59;;;;;;;14.93;6.88;;;;;;;;;;10353243;28;20018;-77
2022/08/20 23:21:00;;;;;;;18.30;7.07;;;;;;;;;;10350320;28;20025;-79
2022/08/20 23:26:00;;;;;;;19.45;8.13;;;;;;;;;;10353439;28;20557;-77
2022/08/20 23:31:00;;;;;;;20.63;10.43;;;;;;;;;;10354170;28;20030;-79
2022/08/20 23:36:02;;;;;;;22.10;10.45;;;;;;;;;;10360722;28;20065;-74
2022/08/20 23:41:03;;;;;;;26.20;10.73;;;;;;;;;;10360431;28;20456;-75
2022/08/20 23:46:04;;;;;;;34.63;13.67;;;;;;;;;;10360963;28;20029;-78
2022/08/20 23:51:04;;;;;;;31.65;13.77;;;;;;;;;;10358018;28;20557;-74
2022/08/20 23:56:04;;;;;;;30.10;12.45;;;;;;;;;;10384182;28;20041;-75
